Latest Weather Observations for Roseworthy

IDS60901

Issued at 9:31 am CDT Tuesday 3 March 2015 (issued every 10 minutes, with the page automatically refreshed every 10 minutes)

About weather observations | Map of Adelaide area stations | Latest observations for Adelaide area | Other Formats
Station Details ID: 023122 Name: ROSEWORTHY AWS Lat: -34.51 Lon: 138.68 Height: 65.0 m
Data from the previous 72 hours. | See also: Recent months at Roseworthy
Date/Time
CDT
Tmp

°C
App
Tmp
°C
Dew
Point
°C
Rel
Hum
%
Delta-T

°C
Wind Press
QNH
hPa
Press
MSL
hPa
Rain
since
9 am
mm
Dir
 
Spd
km/h
Gust
km/h
Spd
kts
Gust
kts
03/09:30am 19.5 16.7 10.0 54 5.1 SE 15 19 8 10 1017.7 - 0.0
03/09:00am 19.4 17.3 9.6 53 5.2 ESE 11 15 6 8 1017.7 1017.6 0.0
03/08:30am 18.0 15.2 10.1 60 4.2 E 15 19 8 10 1017.2 - 0.0
03/08:00am 16.7 14.9 10.8 68 3.2 E 11 15 6 8 1016.9 - 0.0
03/07:30am 14.9 12.2 10.5 75 2.3 E 15 17 8 9 1016.4 - 0.0
03/07:00am 15.6 13.4 10.8 73 2.6 ESE 13 19 7 10 1016.1 - 0.0
03/06:30am 16.1 13.7 11.3 73 2.6 ESE 15 19 8 10 1015.9 - 0.0
03/06:00am 16.3 14.2 11.0 71 2.8 ESE 13 17 7 9 1015.4 1015.3 0.0
03/05:30am 16.7 14.7 11.4 71 2.9 ESE 13 17 7 9 1015.3 - 0.0
03/05:00am 16.7 14.4 11.6 72 2.8 ESE 15 19 8 10 1015.1 - 0.0
03/04:30am 16.9 14.6 11.6 71 2.9 ESE 15 20 8 11 1015.0 - 0.0
03/04:00am 17.4 15.1 11.7 69 3.1 ESE 15 20 8 11 1015.2 - 0.0
03/03:30am 17.9 16.4 11.9 68 3.3 ESE 11 15 6 8 1015.3 - 0.0
03/03:00am 18.2 16.4 12.2 68 3.3 ESE 13 15 7 8 1015.0 1014.9 0.0
03/02:30am 17.2 15.7 11.9 71 2.9 E 11 13 6 7 1015.2 - 0.0
03/02:00am 17.7 17.1 11.7 68 3.3 SSE 6 7 3 4 1015.3 - 0.0
03/01:30am 17.1 17.5 11.2 68 3.2 CALM 0 0 0 0 1015.2 - 0.0
03/01:00am 17.9 18.4 11.7 67 3.4 CALM 0 0 0 0 1015.4 - 0.0
03/12:30am 19.3 18.8 12.8 66 3.7 WSW 7 9 4 5 1015.5 - 0.0
03/12:00am 19.4 19.9 12.7 65 3.8 SSW 2 7 1 4 1015.3 1015.2 0.0
 
Date/Time
CDT
Tmp

°C
App
Tmp
°C
Dew
Point
°C
Rel
Hum
%
Delta-T

°C
Wind Press
QNH
hPa
Press
MSL
hPa
Rain
since
9 am
mm
Dir
 
Spd
km/h
Gust
km/h
Spd
kts
Gust
kts
02/11:30pm 19.8 19.4 13.0 65 3.9 SSW 7 9 4 5 1015.3 - 0.0
02/11:00pm 20.4 19.2 12.9 62 4.3 SW 11 17 6 9 1015.7 - 0.0
02/10:30pm 20.6 19.1 13.1 62 4.3 SW 13 17 7 9 1015.8 - 0.0
02/10:00pm 21.0 18.5 12.4 58 4.9 SSW 17 24 9 13 1015.7 - 0.0
02/09:30pm 21.9 18.1 9.1 44 6.8 SSW 19 26 10 14 1015.1 - 0.0
02/09:00pm 22.3 18.9 9.1 43 7.1 SSW 17 22 9 12 1014.8 1014.7 0.0
02/08:30pm 22.7 18.7 8.4 40 7.6 SSW 19 24 10 13 1014.5 - 0.0
02/08:00pm 23.2 19.0 7.3 36 8.3 SW 19 26 10 14 1014.0 - 0.0
02/07:30pm 23.7 19.1 5.6 31 9.2 SW 19 24 10 13 1013.6 - 0.0
02/07:00pm 24.5 19.6 4.3 27 10.1 SSW 19 26 10 14 1013.5 - 0.0
02/06:30pm 24.9 19.8 4.1 26 10.3 SSW 20 26 11 14 1013.2 - 0.0
02/06:00pm 25.4 20.3 4.0 25 10.7 SSW 20 28 11 15 1012.7 1012.5 0.0
02/05:30pm 25.5 19.5 3.5 24 10.9 SSW 24 32 13 17 1012.3 - 0.0
02/05:00pm 26.1 20.0 2.7 22 11.4 SSW 24 32 13 17 1012.2 - 0.0
02/04:30pm 26.5 20.6 3.7 23 11.4 SW 24 32 13 17 1012.1 - 0.0
02/04:00pm 26.5 20.3 4.3 24 11.2 SW 26 35 14 19 1012.3 - 0.0
02/03:30pm 27.5 20.8 3.9 22 11.9 WSW 28 37 15 20 1012.4 - 0.0
02/03:07pm 28.1 21.3 3.0 20 12.5 WSW 28 35 15 19 1012.3 - 0.0
02/03:00pm 28.5 25.0 1.1 17 13.2 WNW 9 17 5 9 1012.1 1011.9 0.0
02/02:30pm 28.5 25.7 1.9 18 13.0 NW 6 13 3 7 1012.2 - 0.0
02/02:00pm 28.0 25.0 2.2 19 12.7 W 7 13 4 7 1012.4 - 0.0
02/01:30pm 28.4 23.5 1.8 18 13.0 NE 17 26 9 14 1012.6 - 0.0
02/01:00pm 28.0 24.5 1.5 18 12.8 N 9 20 5 11 1013.1 - 0.0
02/12:30pm 27.6 23.9 2.6 20 12.3 N 11 22 6 12 1013.6 - 0.0
02/12:00pm 26.6 20.7 3.8 23 11.4 ENE 24 32 13 17 1013.9 1013.7 0.0
02/11:30am 25.1 18.7 5.3 28 10.1 NE 28 35 15 19 1014.3 - 0.0
02/11:00am 24.4 17.9 4.7 28 9.9 NE 28 37 15 20 1014.9 - 0.0
02/10:30am 23.9 17.5 5.3 30 9.4 NE 28 37 15 20 1015.1 - 0.0
02/10:00am 23.1 16.4 5.5 32 8.9 NE 30 39 16 21 1015.3 - 0.0
02/09:30am 20.9 13.9 6.1 38 7.4 NE 32 44 17 24 1015.0 - 0.0
02/09:00am 19.7 14.2 6.1 41 6.8 ENE 24 37 13 20 1015.0 1014.9 0.0
02/08:30am 18.3 15.1 6.8 47 5.8 ENE 13 17 7 9 1015.2 - 0.0
02/08:00am 17.5 15.5 7.3 51 5.1 E 7 11 4 6 1015.7 - 0.0
02/07:30am 16.6 14.3 7.5 55 4.6 ENE 9 15 5 8 1015.4 - 0.0
02/07:00am 15.5 12.4 7.3 58 4.1 E 13 15 7 8 1014.4 - 0.0
02/06:30am 15.3 14.9 8.3 63 3.5 CALM 0 0 0 0 1014.8 - 0.0
02/06:00am 14.9 12.7 7.7 62 3.6 ENE 9 11 5 6 1014.1 1013.9 0.0
02/05:30am 15.2 12.7 8.4 64 3.4 ESE 11 15 6 8 1013.8 - 0.0
02/05:00am 14.0 11.3 9.0 72 2.5 E 13 19 7 10 1013.6 - 0.0
02/04:30am 12.9 10.6 9.0 77 2.0 E 11 13 6 7 1013.9 - 0.0
02/04:00am 12.4 10.3 8.1 75 2.1 ESE 9 13 5 7 1014.2 - 0.0
02/03:30am 12.8 10.6 7.9 72 2.4 ESE 9 13 5 7 1014.5 - 0.0
02/03:00am 14.4 11.8 9.2 71 2.7 ESE 13 15 7 8 1014.6 1014.5 0.0
02/02:30am 14.5 11.8 9.1 70 2.8 ESE 13 17 7 9 1014.9 - 0.0
02/02:00am 14.3 12.5 9.3 72 2.6 ESE 9 13 5 7 1015.0 - 0.0
02/01:30am 14.2 11.6 9.2 72 2.6 ESE 13 17 7 9 1015.4 - 0.0
02/01:00am 15.5 12.6 9.6 68 3.1 ESE 15 19 8 10 1015.8 - 0.0
02/12:30am 15.5 12.6 9.6 68 3.1 SE 15 20 8 11 1015.9 - 0.0
02/12:00am 15.7 12.0 9.6 67 3.2 ESE 19 26 10 14 1016.2 1016.1 0.0
 
Date/Time
CDT
Tmp

°C
App
Tmp
°C
Dew
Point
°C
Rel
Hum
%
Delta-T

°C
Wind Press
QNH
hPa
Press
MSL
hPa
Rain
since
9 am
mm
Dir
 
Spd
km/h
Gust
km/h
Spd
kts
Gust
kts
01/11:30pm 15.5 12.6 9.6 68 3.1 SE 15 20 8 11 1016.1 - 0.0
01/11:00pm 15.7 13.2 9.6 67 3.2 SE 13 19 7 10 1016.1 - 0.0
01/10:30pm 16.5 13.9 9.4 63 3.7 SE 13 20 7 11 1016.5 - 0.0
01/10:00pm 17.2 13.8 9.1 59 4.2 SE 17 22 9 12 1016.6 - 0.0
01/09:30pm 18.2 14.4 9.0 55 4.8 SE 19 28 10 15 1016.3 - 0.0
01/09:00pm 19.2 15.3 8.8 51 5.4 SSE 19 26 10 14 1016.1 1016.0 0.0
01/08:30pm 20.1 16.5 8.4 47 6.1 SE 17 24 9 13 1015.4 - 0.0
01/08:00pm 21.1 17.0 7.7 42 7.0 SE 19 26 10 14 1014.8 - 0.0
01/07:30pm 22.4 17.8 6.6 36 8.1 SE 20 28 11 15 1014.5 - 0.0
01/07:00pm 23.5 18.5 6.3 33 8.8 SE 22 28 12 15 1014.4 - 0.0
01/06:30pm 24.4 19.0 6.2 31 9.4 SE 24 35 13 19 1014.3 - 0.0
01/06:00pm 24.9 20.1 5.7 29 9.8 SE 20 30 11 16 1014.0 1013.8 0.0
01/05:30pm 25.4 20.5 5.1 27 10.3 SSE 20 32 11 17 1013.8 - 0.0
01/05:00pm 26.0 21.1 5.0 26 10.7 ESE 20 30 11 16 1014.0 - 0.0
01/04:30pm 26.0 21.2 4.5 25 10.8 S 19 28 10 15 1014.2 - 0.0
01/04:00pm 26.4 21.5 4.2 24 11.2 E 19 26 10 14 1013.9 - 0.0
01/03:30pm 26.7 22.0 5.1 25 11.1 E 19 26 10 14 1014.1 - 0.0
01/03:00pm 25.6 21.5 7.7 32 9.5 WSW 19 30 10 16 1014.6 1014.5 0.0
01/02:30pm 25.1 20.3 7.3 32 9.4 SW 22 32 12 17 1014.9 - 0.0
01/02:00pm 24.6 20.7 7.3 33 9.1 S 17 26 9 14 1015.2 - 0.0
01/01:30pm 24.3 20.5 5.6 30 9.5 S 15 22 8 12 1015.3 - 0.0
01/01:00pm 23.3 19.0 5.2 31 9.1 S 17 28 9 15 1015.8 - 0.0
01/12:30pm 22.9 19.5 5.8 33 8.7 SSE 13 26 7 14 1016.4 - 0.0
01/12:00pm 22.4 18.9 7.0 37 7.9 SSW 15 26 8 14 1016.5 1016.4 0.0
01/11:30am 20.9 18.0 6.4 39 7.3 SSE 11 28 6 15 1016.8 - 0.0
01/11:00am 20.9 16.5 6.4 39 7.3 SSE 19 28 10 15 1016.8 - 0.0
01/10:30am 20.3 16.8 7.0 42 6.8 S 15 28 8 15 1016.6 - 0.0
01/10:00am 19.2 14.9 7.0 45 6.2 S 19 26 10 14 1016.6 - 0.0
01/09:30am 18.2 13.8 7.3 49 5.5 S 20 28 11 15 1016.4 - 0.0
01/09:00am 17.7 13.5 7.4 51 5.2 S 19 24 10 13 1015.9 1015.8 0.0
01/08:30am 17.5 13.5 8.4 55 4.7 SSE 19 24 10 13 1015.6 - 0.0
01/08:00am 15.1 13.2 7.4 60 3.8 E 7 9 4 5 1015.4 - 0.0
01/07:30am 14.6 12.4 6.4 58 4.0 ESE 7 9 4 5 1014.9 - 0.0
01/07:00am 14.1 12.1 6.2 59 3.8 SE 6 11 3 6 1014.3 - 0.0
01/06:30am 15.4 12.8 6.1 54 4.5 SSE 9 11 5 6 1013.8 - 0.0
01/06:00am 15.6 11.9 6.1 53 4.6 S 15 22 8 12 1013.7 1013.5 0.0
01/05:30am 17.0 13.0 8.4 57 4.4 S 19 28 10 15 1013.3 - 0.0
01/05:00am 17.1 13.4 9.3 60 4.1 S 19 28 10 15 1012.8 - 0.0
01/04:30am 17.0 13.4 9.7 62 3.8 S 19 28 10 15 1012.3 - 0.0
01/04:00am 17.5 14.1 10.6 64 3.7 SSW 19 24 10 13 1012.1 - 0.0
01/03:30am 17.4 14.1 11.0 66 3.5 SSW 19 28 10 15 1011.8 - 0.0
01/03:00am 17.4 14.1 11.0 66 3.5 SSW 19 26 10 14 1011.6 1011.4 0.0
01/02:30am 17.4 14.7 11.7 69 3.1 S 17 22 9 12 1011.6 - 0.0
01/02:00am 17.8 15.7 12.3 70 3.1 SSW 15 19 8 10 1011.6 - 0.0
01/01:30am 16.9 16.1 11.6 71 2.9 SW 7 9 4 5 1011.8 - 0.0
01/01:00am 16.7 15.4 11.4 71 2.9 S 9 13 5 7 1011.8 - 0.0
01/12:30am 16.7 15.1 11.4 71 2.9 S 11 15 6 8 1011.8 - 0.0
01/12:00am 17.1 14.6 11.2 68 3.2 S 15 19 8 10 1011.8 1011.6 0.0
 
Date/Time
CDT
Tmp

°C
App
Tmp
°C
Dew
Point
°C
Rel
Hum
%
Delta-T

°C
Wind Press
QNH
hPa
Press
MSL
hPa
Rain
since
9 am
mm
Dir
 
Spd
km/h
Gust
km/h
Spd
kts
Gust
kts
28/11:30pm 17.7 13.9 11.3 66 3.5 SSW 22 30 12 16 1011.7 - 0.0
28/11:00pm 18.1 13.3 11.7 66 3.5 SSW 28 39 15 21 1011.5 - 0.0
28/10:30pm 18.5 14.8 12.7 69 3.3 SSW 24 35 13 19 1011.2 - 0.0
28/10:00pm 19.1 14.8 13.3 69 3.3 SW 28 33 15 18 1010.7 - 0.0
28/09:30pm 19.3 15.8 14.6 74 2.7 SW 26 39 14 21 1010.3 - 0.0
28/09:00pm 20.1 16.1 15.3 74 2.8 SW 30 43 16 23 1009.5 1009.2 0.0
28/08:30pm 20.4 17.0 15.8 75 2.7 SW 28 41 15 22 1008.8 - 0.0
28/08:00pm 20.6 16.4 15.6 73 3.0 SW 32 44 17 24 1008.1 - 0.0
28/07:30pm 21.2 16.8 15.7 71 3.3 SW 33 46 18 25 1007.3 - 0.0
28/07:00pm 23.1 22.0 17.8 72 3.3 SW 20 30 11 16 1006.6 - 0.0
28/06:30pm 22.4 19.1 16.9 71 3.4 SSW 30 39 16 21 1006.2 - 0.0
28/06:00pm 24.9 20.3 15.0 54 6.0 SW 33 46 18 25 1005.6 1005.4 0.0
28/05:30pm 24.9 19.3 14.4 52 6.2 SW 37 48 20 26 1005.0 - 0.0
28/05:00pm 26.2 20.9 14.3 48 7.1 SW 35 44 19 24 1005.0 - 0.0
28/04:30pm 27.4 23.6 14.8 46 7.6 SSW 28 39 15 21 1004.4 - 0.0
28/04:00pm 28.4 24.2 14.6 43 8.4 SSW 30 37 16 20 1003.9 - 0.0
28/03:30pm 29.8 23.9 12.3 34 10.3 SW 35 44 19 24 1004.0 - 0.0
28/03:00pm 31.2 26.0 13.5 34 10.7 SW 33 46 18 25 1003.7 1003.5 0.0
28/02:30pm 33.0 28.0 10.9 26 12.9 SW 28 39 15 21 1003.2 - 0.0
28/02:00pm 33.6 28.4 10.2 24 13.5 WSW 28 37 15 20 1003.2 - 0.0
28/01:30pm 33.8 27.3 9.1 22 14.0 WSW 33 46 18 25 1003.3 - 0.0
28/01:00pm 35.6 27.4 8.4 19 15.4 WSW 41 56 22 30 1003.2 - 0.0
28/12:49pm 36.1 26.1 6.3 16 16.4 WSW 48 61 26 33 1002.9 - 0.0
28/12:30pm 36.6 27.3 4.8 14 17.1 WNW 43 65 23 35 1003.1 - 0.0
28/12:25pm 37.6 29.2 5.6 14 17.6 WNW 39 65 21 35 1003.0 - 0.0
28/12:00pm 37.4 28.6 5.4 14 17.5 WNW 41 57 22 31 1003.4 1003.2 0.0
28/11:34am 36.6 29.0 5.8 15 16.9 WNW 35 54 19 29 1003.6 - 0.0
28/11:30am 36.6 27.9 5.8 15 16.9 WNW 41 54 22 29 1003.7 - 0.0
28/11:00am 36.0 27.5 7.1 17 16.1 NW 41 52 22 28 1003.6 - 0.0
28/10:30am 35.4 27.4 7.5 18 15.6 NW 39 48 21 26 1003.6 - 0.0
28/10:00am 34.3 29.5 8.8 21 14.5 NW 24 32 13 17 1003.7 - 0.0

Latest Capital City Observations: Canberra | Sydney | Melbourne | Brisbane | Adelaide | Perth | Hobart | Darwin

Other Formats:

Comma delimited format used in spreadsheet applications
http://www.bom.gov.au/fwo/IDS60901/IDS60901.95671.axf

JavaScript Object Notation format (JSON) in row-major order
http://www.bom.gov.au/fwo/IDS60901/IDS60901.95671.json